sensor_id;sensor_type;location;lat;lon;timestamp;pressure;altitude;pressure_sealevel;temperature;humidity
41140;BME280;26881;48.784;9.192;2023-02-26T00:02:49;98128.38;;;2.88;64.74
41140;BME280;26881;48.784;9.192;2023-02-26T00:08:11;98127.66;;;2.85;63.82
41140;BME280;26881;48.784;9.192;2023-02-26T00:13:35;98136.41;;;2.81;62.25
41140;BME280;26881;48.784;9.192;2023-02-26T00:18:59;98138.47;;;2.71;62.31
41140;BME280;26881;48.784;9.192;2023-02-26T00:24:21;98137.81;;;2.64;63.36
41140;BME280;26881;48.784;9.192;2023-02-26T00:29:43;98142.94;;;2.66;61.69
41140;BME280;26881;48.784;9.192;2023-02-26T00:35:07;98142.72;;;2.72;60.31
41140;BME280;26881;48.784;9.192;2023-02-26T00:40:47;98136.66;;;2.48;62.42
41140;BME280;26881;48.784;9.192;2023-02-26T00:46:20;98142.63;;;2.50;61.05
41140;BME280;26881;48.784;9.192;2023-02-26T00:52:03;98139.03;;;2.27;63.14
41140;BME280;26881;48.784;9.192;2023-02-26T00:57:26;98142.63;;;2.50;62.29
41140;BME280;26881;48.784;9.192;2023-02-26T01:02:48;98138.47;;;2.19;61.80
41140;BME280;26881;48.784;9.192;2023-02-26T01:08:18;98144.25;;;2.26;62.36
41140;BME280;26881;48.784;9.192;2023-02-26T01:13:42;98148.50;;;2.00;63.96
41140;BME280;26881;48.784;9.192;2023-02-26T01:19:11;98149.06;;;2.10;61.68
41140;BME280;26881;48.784;9.192;2023-02-26T01:24:35;98144.84;;;1.79;63.25
41140;BME280;26881;48.784;9.192;2023-02-26T01:29:58;98143.47;;;1.96;62.60
41140;BME280;26881;48.784;9.192;2023-02-26T01:35:30;98140.91;;;1.96;62.93
41140;BME280;26881;48.784;9.192;2023-02-26T01:41:16;98145.69;;;2.08;62.20
41140;BME280;26881;48.784;9.192;2023-02-26T01:47:05;98151.94;;;2.01;63.03
41140;BME280;26881;48.784;9.192;2023-02-26T01:58:09;98154.31;;;1.79;63.25
41140;BME280;26881;48.784;9.192;2023-02-26T02:03:34;98157.03;;;1.74;62.84
41140;BME280;26881;48.784;9.192;2023-02-26T02:08:58;98154.06;;;1.86;64.29
41140;BME280;26881;48.784;9.192;2023-02-26T02:26:39;98164.72;;;1.47;65.14
41140;BME280;26881;48.784;9.192;2023-02-26T02:32:10;98169.94;;;1.74;62.09
41140;BME280;26881;48.784;9.192;2023-02-26T02:37:38;98175.28;;;1.68;63.41
41140;BME280;26881;48.784;9.192;2023-02-26T02:43:17;98178.72;;;1.97;60.96
41140;BME280;26881;48.784;9.192;2023-02-26T02:48:49;98186.00;;;1.23;64.91
41140;BME280;26881;48.784;9.192;2023-02-26T02:54:18;98181.94;;;1.45;62.92
41140;BME280;26881;48.784;9.192;2023-02-26T02:59:46;98181.94;;;1.45;62.01
41140;BME280;26881;48.784;9.192;2023-02-26T03:05:09;98194.53;;;1.56;63.95
41140;BME280;26881;48.784;9.192;2023-02-26T03:10:32;98192.81;;;1.55;64.74
41140;BME280;26881;48.784;9.192;2023-02-26T03:21:29;98210.69;;;1.30;63.76
41140;BME280;26881;48.784;9.192;2023-02-26T03:26:57;98204.28;;;1.14;65.84
41140;BME280;26881;48.784;9.192;2023-02-26T03:32:24;98210.47;;;1.07;65.81
41140;BME280;26881;48.784;9.192;2023-02-26T03:37:51;98213.31;;;0.97;65.37
41140;BME280;26881;48.784;9.192;2023-02-26T03:43:19;98208.16;;;0.97;64.82
41140;BME280;26881;48.784;9.192;2023-02-26T03:48:45;98221.38;;;0.83;65.27
41140;BME280;26881;48.784;9.192;2023-02-26T03:54:18;98220.22;;;0.95;65.09
41140;BME280;26881;48.784;9.192;2023-02-26T03:59:42;98231.97;;;1.05;63.97
41140;BME280;26881;48.784;9.192;2023-02-26T04:05:23;98223.91;;;0.85;64.88
41140;BME280;26881;48.784;9.192;2023-02-26T04:10:58;98232.47;;;0.86;65.55
41140;BME280;26881;48.784;9.192;2023-02-26T04:16:21;98237.88;;;0.76;66.02
41140;BME280;26881;48.784;9.192;2023-02-26T04:21:43;98236.88;;;0.82;66.21
41140;BME280;26881;48.784;9.192;2023-02-26T04:27:05;98237.56;;;0.89;66.30
41140;BME280;26881;48.784;9.192;2023-02-26T04:32:26;98246.13;;;0.89;65.80
41140;BME280;26881;48.784;9.192;2023-02-26T04:37:48;98254.47;;;0.99;65.66
41140;BME280;26881;48.784;9.192;2023-02-26T04:43:10;98261.00;;;1.12;64.26
41140;BME280;26881;48.784;9.192;2023-02-26T04:48:32;98263.81;;;1.03;65.78
41140;BME280;26881;48.784;9.192;2023-02-26T04:53:53;98270.44;;;1.12;65.33
41140;BME280;26881;48.784;9.192;2023-02-26T04:59:15;98268.91;;;1.04;67.13
41140;BME280;26881;48.784;9.192;2023-02-26T05:04:37;98269.53;;;0.80;66.27
41140;BME280;26881;48.784;9.192;2023-02-26T05:09:59;98274.69;;;0.80;67.51
41140;BME280;26881;48.784;9.192;2023-02-26T05:15:21;98280.06;;;0.71;65.88
41140;BME280;26881;48.784;9.192;2023-02-26T05:20:42;98282.75;;;0.66;65.71
41140;BME280;26881;48.784;9.192;2023-02-26T05:26:04;98293.38;;;0.51;67.03
41140;BME280;26881;48.784;9.192;2023-02-26T05:31:26;98295.03;;;0.53;67.23
41140;BME280;26881;48.784;9.192;2023-02-26T05:36:48;98300.09;;;0.94;64.58
41140;BME280;26881;48.784;9.192;2023-02-26T05:42:10;98310.78;;;0.77;66.29
41140;BME280;26881;48.784;9.192;2023-02-26T05:47:33;98312.47;;;0.79;66.42
41140;BME280;26881;48.784;9.192;2023-02-26T05:52:55;98317.63;;;0.78;66.66
41140;BME280;26881;48.784;9.192;2023-02-26T05:58:16;98324.53;;;0.76;66.23
41140;BME280;26881;48.784;9.192;2023-02-26T06:03:38;98325.16;;;0.48;67.15
41140;BME280;26881;48.784;9.192;2023-02-26T06:09:04;98343.78;;;0.59;66.70
41140;BME280;26881;48.784;9.192;2023-02-26T06:14:26;98348.88;;;0.24;68.56
41140;BME280;26881;48.784;9.192;2023-02-26T06:19:48;98361.03;;;0.15;68.66
41140;BME280;26881;48.784;9.192;2023-02-26T06:25:09;98369.84;;;0.04;69.26
41140;BME280;26881;48.784;9.192;2023-02-26T06:30:31;98373.31;;;0.43;67.34
41140;BME280;26881;48.784;9.192;2023-02-26T06:35:53;98384.78;;;0.28;67.86
41140;BME280;26881;48.784;9.192;2023-02-26T06:41:16;98397.91;;;0.14;68.15
41140;BME280;26881;48.784;9.192;2023-02-26T06:46:38;98405.22;;;0.34;68.35
41140;BME280;26881;48.784;9.192;2023-02-26T06:52:00;98416.84;;;0.54;66.73
41140;BME280;26881;48.784;9.192;2023-02-26T06:57:21;98427.81;;;0.20;68.52
41140;BME280;26881;48.784;9.192;2023-02-26T07:02:43;98431.94;;;0.27;68.42
41140;BME280;26881;48.784;9.192;2023-02-26T07:08:05;98441.78;;;0.49;67.84
41140;BME280;26881;48.784;9.192;2023-02-26T07:13:26;98443.94;;;0.28;68.11
41140;BME280;26881;48.784;9.192;2023-02-26T07:18:48;98443.88;;;0.73;67.59
41140;BME280;26881;48.784;9.192;2023-02-26T07:24:10;98457.13;;;0.53;67.87
41140;BME280;26881;48.784;9.192;2023-02-26T07:29:32;98456.28;;;0.54;67.72
41140;BME280;26881;48.784;9.192;2023-02-26T07:34:53;98452.03;;;0.52;68.67
41140;BME280;26881;48.784;9.192;2023-02-26T07:40:15;98467.19;;;0.66;68.69
41140;BME280;26881;48.784;9.192;2023-02-26T07:45:37;98457.09;;;0.95;67.46
41140;BME280;26881;48.784;9.192;2023-02-26T07:50:59;98462.44;;;0.47;67.50
41140;BME280;26881;48.784;9.192;2023-02-26T07:56:21;98467.38;;;0.56;69.22
41140;BME280;26881;48.784;9.192;2023-02-26T08:01:42;98478.09;;;0.77;67.80
41140;BME280;26881;48.784;9.192;2023-02-26T08:07:04;98475.63;;;1.13;70.88
41140;BME280;26881;48.784;9.192;2023-02-26T08:12:26;98474.59;;;0.81;70.50
41140;BME280;26881;48.784;9.192;2023-02-26T08:17:51;98485.06;;;0.73;69.67
41140;BME280;26881;48.784;9.192;2023-02-26T08:23:12;98476.16;;;0.88;70.85
41140;BME280;26881;48.784;9.192;2023-02-26T08:28:35;98480.53;;;0.84;68.17
41140;BME280;26881;48.784;9.192;2023-02-26T08:33:57;98487.47;;;0.81;68.10
41140;BME280;26881;48.784;9.192;2023-02-26T08:39:18;98484.69;;;0.90;68.01
41140;BME280;26881;48.784;9.192;2023-02-26T08:44:41;98484.50;;;0.98;67.49
41140;BME280;26881;48.784;9.192;2023-02-26T08:50:03;98493.97;;;0.97;67.24
41140;BME280;26881;48.784;9.192;2023-02-26T08:55:25;98504.47;;;1.27;67.92
41140;BME280;26881;48.784;9.192;2023-02-26T09:00:47;98508.06;;;1.21;66.74
41140;BME280;26881;48.784;9.192;2023-02-26T09:06:09;98512.50;;;1.15;66.48
41140;BME280;26881;48.784;9.192;2023-02-26T09:11:31;98507.47;;;1.09;67.67
41140;BME280;26881;48.784;9.192;2023-02-26T09:16:53;98520.25;;;1.13;68.05
41140;BME280;26881;48.784;9.192;2023-02-26T09:22:14;98527.88;;;1.18;67.42
41140;BME280;26881;48.784;9.192;2023-02-26T09:27:36;98527.28;;;1.44;67.23
41140;BME280;26881;48.784;9.192;2023-02-26T09:32:58;98534.56;;;1.26;68.76
41140;BME280;26881;48.784;9.192;2023-02-26T09:38:19;98528.38;;;1.34;68.26
41140;BME280;26881;48.784;9.192;2023-02-26T09:44:19;98544.53;;;1.78;68.23
41140;BME280;26881;48.784;9.192;2023-02-26T09:49:59;98555.03;;;1.70;67.25
41140;BME280;26881;48.784;9.192;2023-02-26T09:55:39;98564.59;;;1.65;66.95
41140;BME280;26881;48.784;9.192;2023-02-26T10:06:54;98567.56;;;1.48;69.18
41140;BME280;26881;48.784;9.192;2023-02-26T10:12:20;98569.16;;;1.54;69.46
41140;BME280;26881;48.784;9.192;2023-02-26T10:18:05;98574.56;;;1.43;70.14
41140;BME280;26881;48.784;9.192;2023-02-26T10:23:48;98577.44;;;1.68;68.43
41140;BME280;26881;48.784;9.192;2023-02-26T10:29:19;98575.09;;;1.57;67.57
41140;BME280;26881;48.784;9.192;2023-02-26T10:35:04;98579.50;;;1.52;68.63
41140;BME280;26881;48.784;9.192;2023-02-26T10:40:43;98590.63;;;1.92;66.92
41140;BME280;26881;48.784;9.192;2023-02-26T10:51:36;98581.81;;;2.00;65.67
41140;BME280;26881;48.784;9.192;2023-02-26T10:56:58;98587.19;;;1.91;65.39
41140;BME280;26881;48.784;9.192;2023-02-26T11:02:42;98586.63;;;2.14;64.21
41140;BME280;26881;48.784;9.192;2023-02-26T11:08:26;98587.81;;;2.35;65.55
41140;BME280;26881;48.784;9.192;2023-02-26T11:13:48;98573.13;;;2.39;63.60
41140;BME280;26881;48.784;9.192;2023-02-26T11:19:13;98574.00;;;2.38;63.96
41140;BME280;26881;48.784;9.192;2023-02-26T11:24:37;98565.47;;;2.36;63.28
41140;BME280;26881;48.784;9.192;2023-02-26T11:30:16;98574.31;;;2.58;62.87
41140;BME280;26881;48.784;9.192;2023-02-26T11:35:39;98572.03;;;2.47;62.27
41140;BME280;26881;48.784;9.192;2023-02-26T11:41:01;98575.16;;;2.59;62.96
41140;BME280;26881;48.784;9.192;2023-02-26T11:46:27;98575.16;;;2.59;61.34
41140;BME280;26881;48.784;9.192;2023-02-26T11:52:04;98576.09;;;2.56;61.60
41140;BME280;26881;48.784;9.192;2023-02-26T11:57:30;98575.81;;;2.67;61.56
41140;BME280;26881;48.784;9.192;2023-02-26T12:02:59;98574.84;;;2.71;61.48
41140;BME280;26881;48.784;9.192;2023-02-26T12:08:29;98584.19;;;2.42;64.30
41140;BME280;26881;48.784;9.192;2023-02-26T12:14:00;98582.59;;;2.38;65.35
41140;BME280;26881;48.784;9.192;2023-02-26T12:20:07;98583.16;;;2.82;64.97
41140;BME280;26881;48.784;9.192;2023-02-26T12:37:44;98597.06;;;2.77;62.08
41140;BME280;26881;48.784;9.192;2023-02-26T12:49:28;98588.44;;;2.78;62.07
41140;BME280;26881;48.784;9.192;2023-02-26T12:55:09;98589.97;;;2.85;63.05
41140;BME280;26881;48.784;9.192;2023-02-26T13:06:54;98597.56;;;3.21;62.17
41140;BME280;26881;48.784;9.192;2023-02-26T13:23:32;98601.81;;;3.22;59.31
41140;BME280;26881;48.784;9.192;2023-02-26T13:29:14;98599.47;;;3.14;59.37
41140;BME280;26881;48.784;9.192;2023-02-26T13:45:57;98598.63;;;3.43;56.94
41140;BME280;26881;48.784;9.192;2023-02-26T13:51:57;98605.63;;;3.40;55.72
41140;BME280;26881;48.784;9.192;2023-02-26T13:57:34;98601.41;;;3.37;55.33
41140;BME280;26881;48.784;9.192;2023-02-26T14:08:44;98606.53;;;3.67;53.45
41140;BME280;26881;48.784;9.192;2023-02-26T14:30:49;98622.34;;;3.57;54.54
41140;BME280;26881;48.784;9.192;2023-02-26T14:36:30;98623.44;;;3.49;53.08
41140;BME280;26881;48.784;9.192;2023-02-26T14:41:58;98627.88;;;3.45;55.04
41140;BME280;26881;48.784;9.192;2023-02-26T14:47:21;98623.56;;;3.46;53.71
41140;BME280;26881;48.784;9.192;2023-02-26T15:16:16;98642.50;;;3.74;51.87
41140;BME280;26881;48.784;9.192;2023-02-26T15:27:16;98659.28;;;3.61;51.23
41140;BME280;26881;48.784;9.192;2023-02-26T15:32:39;98660.91;;;3.65;51.24
41140;BME280;26881;48.784;9.192;2023-02-26T15:38:02;98662.28;;;3.47;52.00
41140;BME280;26881;48.784;9.192;2023-02-26T15:43:26;98676.00;;;3.20;52.42
41140;BME280;26881;48.784;9.192;2023-02-26T15:48:48;98672.44;;;3.53;52.25
41140;BME280;26881;48.784;9.192;2023-02-26T15:54:16;98666.69;;;3.73;51.30
41140;BME280;26881;48.784;9.192;2023-02-26T15:59:45;98665.75;;;3.76;50.55
41140;BME280;26881;48.784;9.192;2023-02-26T16:05:10;98680.34;;;3.78;50.42
41140;BME280;26881;48.784;9.192;2023-02-26T16:10:38;98693.50;;;3.71;49.18
41140;BME280;26881;48.784;9.192;2023-02-26T16:16:12;98704.22;;;3.27;49.11
41140;BME280;26881;48.784;9.192;2023-02-26T16:21:37;98716.88;;;3.36;48.58
41140;BME280;26881;48.784;9.192;2023-02-26T16:27:04;98715.63;;;3.19;48.71
41140;BME280;26881;48.784;9.192;2023-02-26T16:32:31;98730.53;;;3.09;49.23
41140;BME280;26881;48.784;9.192;2023-02-26T16:37:54;98741.59;;;3.14;48.93
41140;BME280;26881;48.784;9.192;2023-02-26T16:48:51;98758.00;;;3.13;48.14
41140;BME280;26881;48.784;9.192;2023-02-26T16:54:20;98767.44;;;3.14;46.69
41140;BME280;26881;48.784;9.192;2023-02-26T16:59:48;98790.09;;;3.04;48.73
41140;BME280;26881;48.784;9.192;2023-02-26T17:05:23;98792.69;;;3.03;47.49
41140;BME280;26881;48.784;9.192;2023-02-26T17:10:53;98799.19;;;3.19;47.14
41140;BME280;26881;48.784;9.192;2023-02-26T17:16:15;98805.88;;;3.26;47.98
41140;BME280;26881;48.784;9.192;2023-02-26T17:21:42;98817.25;;;3.21;47.61
41140;BME280;26881;48.784;9.192;2023-02-26T17:27:06;98820.50;;;2.93;47.12
41140;BME280;26881;48.784;9.192;2023-02-26T17:32:30;98824.59;;;3.03;47.98
41140;BME280;26881;48.784;9.192;2023-02-26T17:37:52;98836.63;;;3.03;48.43
41140;BME280;26881;48.784;9.192;2023-02-26T17:43:14;98851.66;;;2.87;48.81
41140;BME280;26881;48.784;9.192;2023-02-26T17:48:37;98857.19;;;2.70;49.70
41140;BME280;26881;48.784;9.192;2023-02-26T17:53:59;98850.09;;;2.80;50.26
41140;BME280;26881;48.784;9.192;2023-02-26T17:59:21;98856.72;;;2.91;50.94
41140;BME280;26881;48.784;9.192;2023-02-26T18:04:43;98859.06;;;3.01;49.99
41140;BME280;26881;48.784;9.192;2023-02-26T18:10:05;98864.19;;;2.66;50.44
41140;BME280;26881;48.784;9.192;2023-02-26T18:15:27;98862.47;;;2.65;50.07
41140;BME280;26881;48.784;9.192;2023-02-26T18:20:49;98874.13;;;2.44;50.64
41140;BME280;26881;48.784;9.192;2023-02-26T18:26:13;98879.13;;;2.52;50.11
41140;BME280;26881;48.784;9.192;2023-02-26T18:31:36;98881.41;;;2.66;50.15
41140;BME280;26881;48.784;9.192;2023-02-26T18:36:59;98886.59;;;2.66;49.70
41140;BME280;26881;48.784;9.192;2023-02-26T18:42:23;98886.19;;;2.44;49.40
41140;BME280;26881;48.784;9.192;2023-02-26T18:47:46;98889.38;;;2.57;49.18
41140;BME280;26881;48.784;9.192;2023-02-26T18:53:10;98888.94;;;2.35;49.83
41140;BME280;26881;48.784;9.192;2023-02-26T18:58:32;98898.00;;;2.54;49.37
41140;BME280;26881;48.784;9.192;2023-02-26T19:03:55;98888.84;;;2.41;49.96
41140;BME280;26881;48.784;9.192;2023-02-26T19:09:16;98891.53;;;2.35;49.90
41140;BME280;26881;48.784;9.192;2023-02-26T19:14:38;98904.13;;;2.08;50.97
41140;BME280;26881;48.784;9.192;2023-02-26T19:20:00;98914.56;;;2.45;49.95
41140;BME280;26881;48.784;9.192;2023-02-26T19:25:22;98919.38;;;2.19;50.68
41140;BME280;26881;48.784;9.192;2023-02-26T19:30:47;98915.84;;;2.24;50.98
41140;BME280;26881;48.784;9.192;2023-02-26T19:36:09;98925.97;;;2.34;50.28
41140;BME280;26881;48.784;9.192;2023-02-26T19:41:31;98931.38;;;2.21;50.90
41140;BME280;26881;48.784;9.192;2023-02-26T19:46:53;98936.91;;;2.01;51.21
41140;BME280;26881;48.784;9.192;2023-02-26T19:52:15;98941.38;;;2.38;50.66
41140;BME280;26881;48.784;9.192;2023-02-26T19:57:38;98950.09;;;1.86;51.34
41140;BME280;26881;48.784;9.192;2023-02-26T20:03:00;98954.34;;;1.88;51.44
41140;BME280;26881;48.784;9.192;2023-02-26T20:08:23;98961.56;;;2.16;51.75
41140;BME280;26881;48.784;9.192;2023-02-26T20:13:47;98967.31;;;2.30;51.18
41140;BME280;26881;48.784;9.192;2023-02-26T20:19:09;98967.63;;;2.15;52.42
41140;BME280;26881;48.784;9.192;2023-02-26T20:24:30;98978.97;;;2.05;51.72
41140;BME280;26881;48.784;9.192;2023-02-26T20:29:53;98978.03;;;2.09;52.23
41140;BME280;26881;48.784;9.192;2023-02-26T20:35:15;98988.69;;;1.90;52.34
41140;BME280;26881;48.784;9.192;2023-02-26T20:40:38;98993.91;;;1.89;52.99
41140;BME280;26881;48.784;9.192;2023-02-26T20:46:00;99005.06;;;1.88;53.36
41140;BME280;26881;48.784;9.192;2023-02-26T20:51:22;99014.38;;;1.98;52.28
41140;BME280;26881;48.784;9.192;2023-02-26T20:56:44;99024.13;;;1.79;53.20
41140;BME280;26881;48.784;9.192;2023-02-26T21:02:10;99019.59;;;1.94;53.10
41140;BME280;26881;48.784;9.192;2023-02-26T21:07:33;99021.53;;;1.81;53.63
41140;BME280;26881;48.784;9.192;2023-02-26T21:12:55;99017.19;;;1.84;53.10
41140;BME280;26881;48.784;9.192;2023-02-26T21:18:16;99024.03;;;1.84;53.76
41140;BME280;26881;48.784;9.192;2023-02-26T21:23:38;99027.31;;;1.39;54.00
41140;BME280;26881;48.784;9.192;2023-02-26T21:29:00;99029.31;;;1.78;53.75
41140;BME280;26881;48.784;9.192;2023-02-26T21:34:23;99030.50;;;1.57;54.37
41140;BME280;26881;48.784;9.192;2023-02-26T21:39:54;99038.31;;;1.51;54.03
41140;BME280;26881;48.784;9.192;2023-02-26T21:45:17;99033.03;;;1.58;54.34
41140;BME280;26881;48.784;9.192;2023-02-26T21:50:38;99030.94;;;1.83;54.99
41140;BME280;26881;48.784;9.192;2023-02-26T21:56:00;99024.59;;;1.48;54.93
41140;BME280;26881;48.784;9.192;2023-02-26T22:01:22;99022.03;;;1.48;55.31
41140;BME280;26881;48.784;9.192;2023-02-26T22:06:45;99033.28;;;1.43;55.76
41140;BME280;26881;48.784;9.192;2023-02-26T22:12:07;99018.25;;;1.71;54.19
41140;BME280;26881;48.784;9.192;2023-02-26T22:17:28;99006.53;;;1.52;55.56
41140;BME280;26881;48.784;9.192;2023-02-26T22:22:51;99010.75;;;1.56;55.83
41140;BME280;26881;48.784;9.192;2023-02-26T22:28:13;99012.41;;;1.61;56.71
41140;BME280;26881;48.784;9.192;2023-02-26T22:33:35;99019.38;;;1.53;56.47
41140;BME280;26881;48.784;9.192;2023-02-26T22:38:58;99026.56;;;1.33;56.54
41140;BME280;26881;48.784;9.192;2023-02-26T22:44:19;99021.50;;;1.26;56.16
41140;BME280;26881;48.784;9.192;2023-02-26T22:49:41;99023.50;;;1.04;57.28
41140;BME280;26881;48.784;9.192;2023-02-26T22:55:04;99025.16;;;1.10;58.00
41140;BME280;26881;48.784;9.192;2023-02-26T23:00:26;99028.41;;;1.26;56.97
41140;BME280;26881;48.784;9.192;2023-02-26T23:05:48;99037.34;;;0.99;57.31
41140;BME280;26881;48.784;9.192;2023-02-26T23:11:10;99039.50;;;1.28;57.07
41140;BME280;26881;48.784;9.192;2023-02-26T23:16:32;99038.88;;;1.12;57.32
41140;BME280;26881;48.784;9.192;2023-02-26T23:21:53;99041.53;;;1.08;57.32
41140;BME280;26881;48.784;9.192;2023-02-26T23:27:17;99037.16;;;1.11;57.55
41140;BME280;26881;48.784;9.192;2023-02-26T23:32:39;99043.38;;;0.95;58.09
41140;BME280;26881;48.784;9.192;2023-02-26T23:38:02;99038.25;;;0.93;58.89
41140;BME280;26881;48.784;9.192;2023-02-26T23:43:24;99041.97;;;0.71;59.29
41140;BME280;26881;48.784;9.192;2023-02-26T23:48:45;99044.94;;;1.07;58.71
41140;BME280;26881;48.784;9.192;2023-02-26T23:54:08;99046.69;;;1.06;58.65
41140;BME280;26881;48.784;9.192;2023-02-26T23:59:30;99043.22;;;1.09;59.31
